This is the latest recevied weather packets stored in our database for station/object OK2JF-6. If no packets are shown the sender has not sent any weather packets the latest 10 day(s).
| Time | Temp. | Humidity | Pressure | Rain* | Wind** | Luminosity | Snow |
|---|---|---|---|---|---|---|---|
| 1778059443 | 23.33° C | 47% | 1080 hPa | 0 mm | - | 122 W/m² | - |
| 1778059143 | 23.33° C | 47% | 1079.9 hPa | 0 mm | - | 404 W/m² | - |
| 1778059023 | 23.33° C | 46% | 1080 hPa | 0 mm | - | 422 W/m² | - |
| 1778058543 | 22.22° C | 50% | 1079.8 hPa | 0 mm | - | 250 W/m² | - |
| 1778058363 | 22.22° C | 51% | 1079.9 hPa | 0 mm | - | 528 W/m² | - |
| 1778058183 | 21.67° C | 53% | 1079.9 hPa | 0 mm | - | 509 W/m² | - |
| 1778058007 | 21.11° C | 52% | 1079.9 hPa | 0 mm | - | 153 W/m² | - |
| 1778057609 | 21.67° C | 50% | 1079.7 hPa | 0 mm | - | 133 W/m² | - |
| 1778057463 | 22.22° C | 48% | 1080 hPa | 0 mm | - | 97 W/m² | - |
| 1778057103 | 22.22° C | 51% | 1079.8 hPa | 0 mm | - | 471 W/m² | - |
| 1778056863 | 21.67° C | 52% | 1079.9 hPa | 0 mm | - | 527 W/m² | - |
| 1778056458 | 20° C | 56% | 1079.7 hPa | 0 mm | - | 242 W/m² | - |
| 1778056217 | 19.44° C | 56% | 1080.2 hPa | 0 mm | - | 481 W/m² | - |
| 1778056023 | 20° C | 54% | 1079.9 hPa | 0 mm | - | 94 W/m² | - |
| 1778055903 | 20.56° C | 53% | 1080 hPa | 0 mm | - | 87 W/m² | - |
| 1778055844 | 20.56° C | 53% | 1079.9 hPa | 0 mm | - | 88 W/m² | - |
| 1778055723 | 20.56° C | 52% | 1080 hPa | 0 mm | - | 98 W/m² | - |
| 1778055543 | 20.56° C | 51% | 1079.9 hPa | 0 mm | - | 450 W/m² | - |
| 1778055483 | 21.11° C | 51% | 1079.9 hPa | 0 mm | - | 452 W/m² | - |
| 1778055183 | 21.11° C | 53% | 1080 hPa | 0 mm | - | 348 W/m² | - |
| 1778055123 | 21.11° C | 53% | 1080 hPa | 0 mm | - | 479 W/m² | - |
| 1778055063 | 21.11° C | 53% | 1079.9 hPa | 0 mm | - | 480 W/m² | - |
| 1778054643 | 20° C | 57% | 1080 hPa | 0 mm | - | 410 W/m² | - |
| 1778054177 | 19.44° C | 57% | 1079.9 hPa | 0 mm | - | 154 W/m² | - |
| 1778053623 | 19.44° C | 56% | 1080.1 hPa | 0 mm | - | 446 W/m² | - |
* Rain latest hour (hover to see other rain measurements)
** Current wind speed in m/s (hover to see current wind gust speed)